sensor_id;sensor_type;location;lat;lon;timestamp;P1;durP1;ratioP1;P2;durP2;ratioP2
18142;SDS011;9197;50.930;3.140;2022-09-03T00:01:26;14.67;;;13.37;;
18142;SDS011;9197;50.930;3.140;2022-09-03T00:04:01;15.13;;;13.73;;
18142;SDS011;9197;50.930;3.140;2022-09-03T00:06:32;16.70;;;15.13;;
18142;SDS011;9197;50.930;3.140;2022-09-03T00:09:04;16.80;;;15.17;;
18142;SDS011;9197;50.930;3.140;2022-09-03T00:11:38;15.30;;;13.90;;
18142;SDS011;9197;50.930;3.140;2022-09-03T00:14:13;16.13;;;14.63;;
18142;SDS011;9197;50.930;3.140;2022-09-03T00:16:45;15.30;;;13.80;;
18142;SDS011;9197;50.930;3.140;2022-09-03T00:19:17;15.97;;;14.57;;
18142;SDS011;9197;50.930;3.140;2022-09-03T00:21:50;15.93;;;14.43;;
18142;SDS011;9197;50.930;3.140;2022-09-03T00:24:21;17.70;;;16.20;;
18142;SDS011;9197;50.930;3.140;2022-09-03T00:26:51;16.80;;;15.30;;
18142;SDS011;9197;50.930;3.140;2022-09-03T00:29:23;16.77;;;15.07;;
18142;SDS011;9197;50.930;3.140;2022-09-03T00:31:55;18.17;;;16.30;;
18142;SDS011;9197;50.930;3.140;2022-09-03T00:34:28;17.30;;;15.57;;
18142;SDS011;9197;50.930;3.140;2022-09-03T00:36:57;18.53;;;16.90;;
18142;SDS011;9197;50.930;3.140;2022-09-03T00:39:24;18.07;;;16.40;;
18142;SDS011;9197;50.930;3.140;2022-09-03T00:42:05;18.00;;;16.40;;
18142;SDS011;9197;50.930;3.140;2022-09-03T00:47:38;18.58;;;16.83;;
18142;SDS011;9197;50.930;3.140;2022-09-03T00:50:16;18.10;;;16.40;;
18142;SDS011;9197;50.930;3.140;2022-09-03T00:52:51;18.45;;;16.55;;
18142;SDS011;9197;50.930;3.140;2022-09-03T00:55:25;18.00;;;16.40;;
18142;SDS011;9197;50.930;3.140;2022-09-03T00:58:04;17.63;;;16.13;;
18142;SDS011;9197;50.930;3.140;2022-09-03T01:00:42;18.75;;;16.88;;
18142;SDS011;9197;50.930;3.140;2022-09-03T01:03:11;18.73;;;16.90;;
18142;SDS011;9197;50.930;3.140;2022-09-03T01:05:53;16.20;;;14.70;;
18142;SDS011;9197;50.930;3.140;2022-09-03T01:08:38;17.23;;;15.63;;
18142;SDS011;9197;50.930;3.140;2022-09-03T01:11:19;16.37;;;14.90;;
18142;SDS011;9197;50.930;3.140;2022-09-03T01:13:56;17.27;;;15.23;;
18142;SDS011;9197;50.930;3.140;2022-09-03T01:16:31;18.10;;;16.50;;
18142;SDS011;9197;50.930;3.140;2022-09-03T01:19:11;18.57;;;16.97;;
18142;SDS011;9197;50.930;3.140;2022-09-03T01:22:01;18.80;;;17.00;;
18142;SDS011;9197;50.930;3.140;2022-09-03T01:24:53;19.97;;;18.07;;
18142;SDS011;9197;50.930;3.140;2022-09-03T01:27:37;19.77;;;17.77;;
18142;SDS011;9197;50.930;3.140;2022-09-03T01:30:13;19.58;;;17.88;;
18142;SDS011;9197;50.930;3.140;2022-09-03T01:32:44;20.33;;;18.63;;
18142;SDS011;9197;50.930;3.140;2022-09-03T01:35:19;21.30;;;19.23;;
18142;SDS011;9197;50.930;3.140;2022-09-03T01:37:56;22.50;;;19.97;;
18142;SDS011;9197;50.930;3.140;2022-09-03T01:40:34;21.73;;;19.57;;
18142;SDS011;9197;50.930;3.140;2022-09-03T01:43:11;24.07;;;21.60;;
18142;SDS011;9197;50.930;3.140;2022-09-03T01:45:58;23.17;;;20.87;;
18142;SDS011;9197;50.930;3.140;2022-09-03T01:48:34;22.07;;;20.00;;
18142;SDS011;9197;50.930;3.140;2022-09-03T01:51:10;23.00;;;20.83;;
18142;SDS011;9197;50.930;3.140;2022-09-03T01:53:51;22.70;;;20.63;;
18142;SDS011;9197;50.930;3.140;2022-09-03T01:56:52;23.90;;;21.50;;
18142;SDS011;9197;50.930;3.140;2022-09-03T01:59:40;23.87;;;21.57;;
18142;SDS011;9197;50.930;3.140;2022-09-03T02:02:14;23.23;;;20.97;;
18142;SDS011;9197;50.930;3.140;2022-09-03T02:04:53;22.70;;;20.63;;
18142;SDS011;9197;50.930;3.140;2022-09-03T02:07:23;23.43;;;21.33;;
18142;SDS011;9197;50.930;3.140;2022-09-03T02:09:57;22.63;;;20.53;;
18142;SDS011;9197;50.930;3.140;2022-09-03T02:12:24;21.83;;;19.90;;
18142;SDS011;9197;50.930;3.140;2022-09-03T02:14:51;22.47;;;20.20;;
18142;SDS011;9197;50.930;3.140;2022-09-03T02:17:19;21.93;;;19.93;;
18142;SDS011;9197;50.930;3.140;2022-09-03T02:19:47;23.20;;;20.73;;
18142;SDS011;9197;50.930;3.140;2022-09-03T02:22:13;21.30;;;19.10;;
18142;SDS011;9197;50.930;3.140;2022-09-03T02:24:40;22.27;;;20.07;;
18142;SDS011;9197;50.930;3.140;2022-09-03T02:27:08;22.47;;;20.27;;
18142;SDS011;9197;50.930;3.140;2022-09-03T02:29:34;20.63;;;18.38;;
18142;SDS011;9197;50.930;3.140;2022-09-03T02:32:02;22.53;;;20.33;;
18142;SDS011;9197;50.930;3.140;2022-09-03T02:34:31;21.97;;;19.70;;
18142;SDS011;9197;50.930;3.140;2022-09-03T02:36:58;20.85;;;19.05;;
18142;SDS011;9197;50.930;3.140;2022-09-03T02:39:25;21.17;;;19.27;;
18142;SDS011;9197;50.930;3.140;2022-09-03T02:41:53;22.35;;;20.33;;
18142;SDS011;9197;50.930;3.140;2022-09-03T02:44:23;21.27;;;19.33;;
18142;SDS011;9197;50.930;3.140;2022-09-03T02:46:56;22.07;;;19.80;;
18142;SDS011;9197;50.930;3.140;2022-09-03T02:49:24;24.03;;;21.63;;
18142;SDS011;9197;50.930;3.140;2022-09-03T02:51:56;21.97;;;19.77;;
18142;SDS011;9197;50.930;3.140;2022-09-03T02:54:24;23.05;;;21.05;;
18142;SDS011;9197;50.930;3.140;2022-09-03T02:56:52;22.07;;;19.97;;
18142;SDS011;9197;50.930;3.140;2022-09-03T02:59:19;22.87;;;20.47;;
18142;SDS011;9197;50.930;3.140;2022-09-03T03:01:47;23.73;;;21.43;;
18142;SDS011;9197;50.930;3.140;2022-09-03T03:04:14;24.50;;;22.23;;
18142;SDS011;9197;50.930;3.140;2022-09-03T03:06:41;24.73;;;22.33;;
18142;SDS011;9197;50.930;3.140;2022-09-03T03:09:09;25.60;;;23.27;;
18142;SDS011;9197;50.930;3.140;2022-09-03T03:11:36;23.85;;;21.48;;
18142;SDS011;9197;50.930;3.140;2022-09-03T03:14:04;25.93;;;23.30;;
18142;SDS011;9197;50.930;3.140;2022-09-03T03:16:31;25.87;;;23.27;;
18142;SDS011;9197;50.930;3.140;2022-09-03T03:18:58;25.10;;;22.65;;
18142;SDS011;9197;50.930;3.140;2022-09-03T03:21:25;25.00;;;22.60;;
18142;SDS011;9197;50.930;3.140;2022-09-03T03:23:52;25.63;;;23.13;;
18142;SDS011;9197;50.930;3.140;2022-09-03T03:26:20;23.73;;;21.42;;
18142;SDS011;9197;50.930;3.140;2022-09-03T03:28:48;23.88;;;21.77;;
18142;SDS011;9197;50.930;3.140;2022-09-03T03:31:20;26.17;;;23.43;;
18142;SDS011;9197;50.930;3.140;2022-09-03T03:33:49;25.52;;;22.83;;
18142;SDS011;9197;50.930;3.140;2022-09-03T03:36:17;24.90;;;22.50;;
18142;SDS011;9197;50.930;3.140;2022-09-03T03:38:45;24.67;;;22.38;;
18142;SDS011;9197;50.930;3.140;2022-09-03T03:41:13;24.30;;;21.90;;
18142;SDS011;9197;50.930;3.140;2022-09-03T03:43:43;24.95;;;22.65;;
18142;SDS011;9197;50.930;3.140;2022-09-03T03:46:11;23.88;;;21.77;;
18142;SDS011;9197;50.930;3.140;2022-09-03T03:48:39;25.33;;;23.03;;
18142;SDS011;9197;50.930;3.140;2022-09-03T03:51:07;26.73;;;20.57;;
18142;SDS011;9197;50.930;3.140;2022-09-03T03:53:36;26.17;;;23.53;;
18142;SDS011;9197;50.930;3.140;2022-09-03T03:56:04;24.53;;;21.93;;
18142;SDS011;9197;50.930;3.140;2022-09-03T03:58:34;26.00;;;23.73;;
18142;SDS011;9197;50.930;3.140;2022-09-03T04:01:06;25.37;;;22.97;;
18142;SDS011;9197;50.930;3.140;2022-09-03T04:03:35;26.50;;;23.33;;
18142;SDS011;9197;50.930;3.140;2022-09-03T04:06:03;26.90;;;24.20;;
18142;SDS011;9197;50.930;3.140;2022-09-03T04:08:32;25.17;;;22.83;;
18142;SDS011;9197;50.930;3.140;2022-09-03T04:11:00;24.67;;;22.30;;
18142;SDS011;9197;50.930;3.140;2022-09-03T04:13:28;26.13;;;23.60;;
18142;SDS011;9197;50.930;3.140;2022-09-03T04:15:59;23.90;;;21.50;;
18142;SDS011;9197;50.930;3.140;2022-09-03T04:18:28;24.37;;;21.80;;
18142;SDS011;9197;50.930;3.140;2022-09-03T04:20:58;24.60;;;22.10;;
18142;SDS011;9197;50.930;3.140;2022-09-03T04:23:28;24.90;;;22.50;;
18142;SDS011;9197;50.930;3.140;2022-09-03T04:25:56;22.80;;;20.67;;
18142;SDS011;9197;50.930;3.140;2022-09-03T04:28:23;24.60;;;22.30;;
18142;SDS011;9197;50.930;3.140;2022-09-03T04:30:50;23.37;;;21.07;;
18142;SDS011;9197;50.930;3.140;2022-09-03T04:33:17;25.07;;;22.47;;
18142;SDS011;9197;50.930;3.140;2022-09-03T04:35:44;26.90;;;24.40;;
18142;SDS011;9197;50.930;3.140;2022-09-03T04:38:11;28.00;;;25.30;;
18142;SDS011;9197;50.930;3.140;2022-09-03T04:40:38;29.43;;;26.53;;
18142;SDS011;9197;50.930;3.140;2022-09-03T04:43:05;27.40;;;24.70;;
18142;SDS011;9197;50.930;3.140;2022-09-03T04:45:31;28.30;;;25.60;;
18142;SDS011;9197;50.930;3.140;2022-09-03T04:47:59;25.53;;;23.10;;
18142;SDS011;9197;50.930;3.140;2022-09-03T04:50:27;27.87;;;24.77;;
18142;SDS011;9197;50.930;3.140;2022-09-03T04:52:57;28.53;;;25.70;;
18142;SDS011;9197;50.930;3.140;2022-09-03T04:55:26;30.60;;;27.43;;
18142;SDS011;9197;50.930;3.140;2022-09-03T04:57:53;31.57;;;28.17;;
18142;SDS011;9197;50.930;3.140;2022-09-03T05:00:20;30.77;;;27.77;;
18142;SDS011;9197;50.930;3.140;2022-09-03T05:02:47;31.13;;;27.87;;
18142;SDS011;9197;50.930;3.140;2022-09-03T05:05:16;33.03;;;29.67;;
18142;SDS011;9197;50.930;3.140;2022-09-03T05:07:43;31.77;;;28.40;;
18142;SDS011;9197;50.930;3.140;2022-09-03T05:10:12;34.13;;;30.33;;
18142;SDS011;9197;50.930;3.140;2022-09-03T05:12:44;32.80;;;29.07;;
18142;SDS011;9197;50.930;3.140;2022-09-03T05:15:11;32.10;;;28.97;;
18142;SDS011;9197;50.930;3.140;2022-09-03T05:17:38;32.87;;;29.40;;
18142;SDS011;9197;50.930;3.140;2022-09-03T05:20:05;30.13;;;27.23;;
18142;SDS011;9197;50.930;3.140;2022-09-03T05:22:34;29.93;;;26.80;;
18142;SDS011;9197;50.930;3.140;2022-09-03T05:25:01;30.57;;;27.57;;
18142;SDS011;9197;50.930;3.140;2022-09-03T05:27:30;31.27;;;27.87;;
18142;SDS011;9197;50.930;3.140;2022-09-03T05:29:57;33.17;;;29.57;;
18142;SDS011;9197;50.930;3.140;2022-09-03T05:32:24;29.00;;;26.27;;
18142;SDS011;9197;50.930;3.140;2022-09-03T05:34:52;31.43;;;28.23;;
18142;SDS011;9197;50.930;3.140;2022-09-03T05:37:20;28.63;;;25.77;;
18142;SDS011;9197;50.930;3.140;2022-09-03T05:39:47;29.80;;;26.87;;
18142;SDS011;9197;50.930;3.140;2022-09-03T05:42:14;31.43;;;27.57;;
18142;SDS011;9197;50.930;3.140;2022-09-03T05:44:42;31.10;;;26.90;;
18142;SDS011;9197;50.930;3.140;2022-09-03T05:47:09;29.77;;;26.67;;
18142;SDS011;9197;50.930;3.140;2022-09-03T05:49:36;29.80;;;26.90;;
18142;SDS011;9197;50.930;3.140;2022-09-03T05:52:03;29.47;;;26.10;;
18142;SDS011;9197;50.930;3.140;2022-09-03T05:54:30;29.87;;;26.90;;
18142;SDS011;9197;50.930;3.140;2022-09-03T05:56:57;28.37;;;25.57;;
18142;SDS011;9197;50.930;3.140;2022-09-03T05:59:25;29.53;;;26.47;;
18142;SDS011;9197;50.930;3.140;2022-09-03T06:01:53;28.10;;;25.27;;
18142;SDS011;9197;50.930;3.140;2022-09-03T06:04:20;27.13;;;24.60;;
18142;SDS011;9197;50.930;3.140;2022-09-03T06:06:47;26.67;;;24.07;;
18142;SDS011;9197;50.930;3.140;2022-09-03T06:09:15;25.93;;;23.27;;
18142;SDS011;9197;50.930;3.140;2022-09-03T06:11:43;25.73;;;22.90;;
18142;SDS011;9197;50.930;3.140;2022-09-03T06:14:11;25.53;;;23.13;;
18142;SDS011;9197;50.930;3.140;2022-09-03T06:16:40;25.23;;;22.83;;
18142;SDS011;9197;50.930;3.140;2022-09-03T06:19:09;25.23;;;22.73;;
18142;SDS011;9197;50.930;3.140;2022-09-03T06:21:38;24.63;;;22.27;;
18142;SDS011;9197;50.930;3.140;2022-09-03T06:24:07;24.47;;;21.83;;
18142;SDS011;9197;50.930;3.140;2022-09-03T06:26:35;27.83;;;23.50;;
18142;SDS011;9197;50.930;3.140;2022-09-03T06:29:02;25.17;;;22.53;;
18142;SDS011;9197;50.930;3.140;2022-09-03T06:31:30;23.70;;;21.23;;
18142;SDS011;9197;50.930;3.140;2022-09-03T06:33:57;24.33;;;21.83;;
18142;SDS011;9197;50.930;3.140;2022-09-03T06:36:25;23.90;;;21.40;;
18142;SDS011;9197;50.930;3.140;2022-09-03T06:38:53;24.07;;;21.60;;
18142;SDS011;9197;50.930;3.140;2022-09-03T06:41:22;24.20;;;21.63;;
18142;SDS011;9197;50.930;3.140;2022-09-03T06:43:51;22.33;;;20.08;;
18142;SDS011;9197;50.930;3.140;2022-09-03T06:46:20;23.13;;;20.75;;
18142;SDS011;9197;50.930;3.140;2022-09-03T06:48:48;23.15;;;20.77;;
18142;SDS011;9197;50.930;3.140;2022-09-03T06:51:16;23.77;;;21.30;;
18142;SDS011;9197;50.930;3.140;2022-09-03T06:53:47;24.75;;;21.48;;
18142;SDS011;9197;50.930;3.140;2022-09-03T06:56:16;22.08;;;19.98;;
18142;SDS011;9197;50.930;3.140;2022-09-03T06:58:50;25.13;;;20.58;;
18142;SDS011;9197;50.930;3.140;2022-09-03T07:01:18;21.65;;;19.42;;
18142;SDS011;9197;50.930;3.140;2022-09-03T07:03:50;21.77;;;19.63;;
18142;SDS011;9197;50.930;3.140;2022-09-03T07:06:20;21.33;;;19.17;;
18142;SDS011;9197;50.930;3.140;2022-09-03T07:08:49;22.48;;;19.45;;
18142;SDS011;9197;50.930;3.140;2022-09-03T07:11:17;21.52;;;18.80;;
18142;SDS011;9197;50.930;3.140;2022-09-03T07:13:47;20.65;;;18.45;;
18142;SDS011;9197;50.930;3.140;2022-09-03T07:16:18;22.13;;;18.48;;
18142;SDS011;9197;50.930;3.140;2022-09-03T07:18:45;19.17;;;17.33;;
18142;SDS011;9197;50.930;3.140;2022-09-03T07:21:14;19.55;;;17.55;;
18142;SDS011;9197;50.930;3.140;2022-09-03T07:23:42;18.58;;;16.90;;
18142;SDS011;9197;50.930;3.140;2022-09-03T07:26:12;18.17;;;16.25;;
18142;SDS011;9197;50.930;3.140;2022-09-03T07:28:40;18.48;;;16.67;;
18142;SDS011;9197;50.930;3.140;2022-09-03T07:31:10;17.70;;;16.17;;
18142;SDS011;9197;50.930;3.140;2022-09-03T07:33:39;18.08;;;16.33;;
18142;SDS011;9197;50.930;3.140;2022-09-03T07:36:09;18.67;;;16.00;;
18142;SDS011;9197;50.930;3.140;2022-09-03T07:38:38;17.45;;;15.68;;
18142;SDS011;9197;50.930;3.140;2022-09-03T07:41:08;16.30;;;14.75;;
18142;SDS011;9197;50.930;3.140;2022-09-03T07:43:37;18.50;;;15.32;;
18142;SDS011;9197;50.930;3.140;2022-09-03T07:46:07;17.48;;;15.35;;
18142;SDS011;9197;50.930;3.140;2022-09-03T07:48:37;17.80;;;16.08;;
18142;SDS011;9197;50.930;3.140;2022-09-03T07:51:04;17.13;;;15.35;;
18142;SDS011;9197;50.930;3.140;2022-09-03T07:53:32;17.88;;;14.63;;
18142;SDS011;9197;50.930;3.140;2022-09-03T07:56:02;17.88;;;14.60;;
18142;SDS011;9197;50.930;3.140;2022-09-03T07:58:30;17.00;;;15.15;;
18142;SDS011;9197;50.930;3.140;2022-09-03T08:01:02;16.65;;;15.05;;
18142;SDS011;9197;50.930;3.140;2022-09-03T08:03:30;16.05;;;14.30;;
18142;SDS011;9197;50.930;3.140;2022-09-03T08:05:59;22.38;;;15.80;;
18142;SDS011;9197;50.930;3.140;2022-09-03T08:08:27;17.33;;;15.80;;
18142;SDS011;9197;50.930;3.140;2022-09-03T08:10:54;18.13;;;15.90;;
18142;SDS011;9197;50.930;3.140;2022-09-03T08:13:28;16.27;;;14.88;;
18142;SDS011;9197;50.930;3.140;2022-09-03T08:15:55;18.08;;;15.27;;
18142;SDS011;9197;50.930;3.140;2022-09-03T08:18:25;17.08;;;15.50;;
18142;SDS011;9197;50.930;3.140;2022-09-03T08:21:02;15.80;;;14.35;;
18142;SDS011;9197;50.930;3.140;2022-09-03T08:23:31;15.98;;;14.38;;
18142;SDS011;9197;50.930;3.140;2022-09-03T08:25:58;15.10;;;13.82;;
18142;SDS011;9197;50.930;3.140;2022-09-03T08:28:26;16.45;;;14.75;;
18142;SDS011;9197;50.930;3.140;2022-09-03T08:30:54;14.50;;;13.07;;
18142;SDS011;9197;50.930;3.140;2022-09-03T08:33:21;15.70;;;14.18;;
18142;SDS011;9197;50.930;3.140;2022-09-03T08:36:04;15.52;;;14.10;;
18142;SDS011;9197;50.930;3.140;2022-09-03T08:38:31;15.73;;;14.15;;
18142;SDS011;9197;50.930;3.140;2022-09-03T08:41:02;13.63;;;12.32;;
18142;SDS011;9197;50.930;3.140;2022-09-03T08:43:29;14.00;;;12.70;;
18142;SDS011;9197;50.930;3.140;2022-09-03T08:45:57;15.68;;;14.18;;
18142;SDS011;9197;50.930;3.140;2022-09-03T08:48:25;15.07;;;13.77;;
18142;SDS011;9197;50.930;3.140;2022-09-03T08:50:53;13.73;;;12.52;;
18142;SDS011;9197;50.930;3.140;2022-09-03T08:53:27;15.43;;;14.05;;
18142;SDS011;9197;50.930;3.140;2022-09-03T08:55:57;16.15;;;13.50;;
18142;SDS011;9197;50.930;3.140;2022-09-03T08:58:26;17.15;;;13.90;;
18142;SDS011;9197;50.930;3.140;2022-09-03T09:00:54;15.05;;;13.52;;
18142;SDS011;9197;50.930;3.140;2022-09-03T09:03:29;14.40;;;13.10;;
18142;SDS011;9197;50.930;3.140;2022-09-03T09:06:13;14.88;;;13.32;;
18142;SDS011;9197;50.930;3.140;2022-09-03T09:08:50;13.65;;;12.25;;
18142;SDS011;9197;50.930;3.140;2022-09-03T09:11:28;14.90;;;12.93;;
18142;SDS011;9197;50.930;3.140;2022-09-03T09:14:08;14.35;;;12.95;;
18142;SDS011;9197;50.930;3.140;2022-09-03T09:16:44;14.30;;;12.90;;
18142;SDS011;9197;50.930;3.140;2022-09-03T09:19:22;14.32;;;13.02;;
18142;SDS011;9197;50.930;3.140;2022-09-03T09:22:03;14.65;;;13.32;;
18142;SDS011;9197;50.930;3.140;2022-09-03T09:24:36;14.80;;;13.38;;
18142;SDS011;9197;50.930;3.140;2022-09-03T09:27:15;14.32;;;12.95;;
18142;SDS011;9197;50.930;3.140;2022-09-03T09:29:42;13.50;;;12.15;;
18142;SDS011;9197;50.930;3.140;2022-09-03T09:32:14;15.60;;;12.63;;
18142;SDS011;9197;50.930;3.140;2022-09-03T09:34:43;14.45;;;13.02;;
18142;SDS011;9197;50.930;3.140;2022-09-03T09:37:12;14.18;;;12.82;;
18142;SDS011;9197;50.930;3.140;2022-09-03T09:39:53;14.57;;;13.20;;
18142;SDS011;9197;50.930;3.140;2022-09-03T09:42:21;14.82;;;13.32;;
18142;SDS011;9197;50.930;3.140;2022-09-03T09:44:48;13.90;;;12.55;;
18142;SDS011;9197;50.930;3.140;2022-09-03T09:47:23;13.85;;;12.40;;
18142;SDS011;9197;50.930;3.140;2022-09-03T09:49:52;15.55;;;14.25;;
18142;SDS011;9197;50.930;3.140;2022-09-03T09:52:21;15.50;;;14.20;;
18142;SDS011;9197;50.930;3.140;2022-09-03T09:54:51;16.60;;;15.00;;
18142;SDS011;9197;50.930;3.140;2022-09-03T09:57:31;14.02;;;12.80;;
18142;SDS011;9197;50.930;3.140;2022-09-03T10:00:02;15.45;;;13.90;;
18142;SDS011;9197;50.930;3.140;2022-09-03T10:02:33;14.27;;;13.07;;
18142;SDS011;9197;50.930;3.140;2022-09-03T10:05:11;16.98;;;15.48;;
18142;SDS011;9197;50.930;3.140;2022-09-03T10:07:39;14.95;;;13.55;;
18142;SDS011;9197;50.930;3.140;2022-09-03T10:10:13;16.77;;;13.23;;
18142;SDS011;9197;50.930;3.140;2022-09-03T10:12:43;15.60;;;14.18;;
18142;SDS011;9197;50.930;3.140;2022-09-03T10:15:19;14.27;;;13.07;;
18142;SDS011;9197;50.930;3.140;2022-09-03T10:17:59;11.85;;;10.80;;
18142;SDS011;9197;50.930;3.140;2022-09-03T10:20:31;11.15;;;10.27;;
18142;SDS011;9197;50.930;3.140;2022-09-03T10:23:05;11.07;;;9.98;;
18142;SDS011;9197;50.930;3.140;2022-09-03T10:25:39;13.25;;;11.82;;
18142;SDS011;9197;50.930;3.140;2022-09-03T10:28:24;13.75;;;12.18;;
18142;SDS011;9197;50.930;3.140;2022-09-03T10:30:57;13.93;;;12.60;;
18142;SDS011;9197;50.930;3.140;2022-09-03T10:33:46;11.98;;;10.98;;
18142;SDS011;9197;50.930;3.140;2022-09-03T10:36:17;12.18;;;10.98;;
18142;SDS011;9197;50.930;3.140;2022-09-03T10:38:52;13.30;;;11.85;;
18142;SDS011;9197;50.930;3.140;2022-09-03T10:41:34;11.90;;;10.73;;
18142;SDS011;9197;50.930;3.140;2022-09-03T10:44:18;12.43;;;11.23;;
18142;SDS011;9197;50.930;3.140;2022-09-03T10:47:00;12.23;;;11.02;;
18142;SDS011;9197;50.930;3.140;2022-09-03T10:49:44;12.18;;;10.77;;
18142;SDS011;9197;50.930;3.140;2022-09-03T10:52:19;13.23;;;11.98;;
18142;SDS011;9197;50.930;3.140;2022-09-03T10:54:55;11.50;;;10.50;;
18142;SDS011;9197;50.930;3.140;2022-09-03T10:57:33;15.30;;;13.95;;
18142;SDS011;9197;50.930;3.140;2022-09-03T11:00:08;14.63;;;13.32;;
18142;SDS011;9197;50.930;3.140;2022-09-03T11:02:45;15.35;;;13.85;;
18142;SDS011;9197;50.930;3.140;2022-09-03T11:05:37;15.43;;;13.18;;
18142;SDS011;9197;50.930;3.140;2022-09-03T11:08:08;16.08;;;14.68;;
18142;SDS011;9197;50.930;3.140;2022-09-03T11:10:39;15.45;;;14.15;;
18142;SDS011;9197;50.930;3.140;2022-09-03T11:13:16;13.45;;;12.25;;
18142;SDS011;9197;50.930;3.140;2022-09-03T11:15:48;16.23;;;14.60;;
18142;SDS011;9197;50.930;3.140;2022-09-03T11:18:19;16.13;;;14.60;;
18142;SDS011;9197;50.930;3.140;2022-09-03T11:20:51;17.35;;;15.80;;
18142;SDS011;9197;50.930;3.140;2022-09-03T11:23:21;14.50;;;13.20;;
18142;SDS011;9197;50.930;3.140;2022-09-03T11:25:52;14.05;;;12.75;;
18142;SDS011;9197;50.930;3.140;2022-09-03T11:28:25;14.07;;;12.38;;
18142;SDS011;9197;50.930;3.140;2022-09-03T11:31:04;14.10;;;12.98;;
18142;SDS011;9197;50.930;3.140;2022-09-03T11:33:39;13.02;;;11.93;;
18142;SDS011;9197;50.930;3.140;2022-09-03T11:36:10;12.95;;;11.75;;
18142;SDS011;9197;50.930;3.140;2022-09-03T11:38:37;11.93;;;10.90;;
18142;SDS011;9197;50.930;3.140;2022-09-03T11:41:10;15.68;;;14.40;;
18142;SDS011;9197;50.930;3.140;2022-09-03T11:43:41;12.35;;;11.27;;
18142;SDS011;9197;50.930;3.140;2022-09-03T11:46:10;12.52;;;11.43;;
18142;SDS011;9197;50.930;3.140;2022-09-03T11:48:40;12.38;;;11.38;;
18142;SDS011;9197;50.930;3.140;2022-09-03T11:51:19;11.48;;;10.07;;
18142;SDS011;9197;50.930;3.140;2022-09-03T11:53:56;15.52;;;14.15;;
18142;SDS011;9197;50.930;3.140;2022-09-03T11:56:24;13.30;;;12.15;;
18142;SDS011;9197;50.930;3.140;2022-09-03T11:59:00;13.32;;;12.23;;
18142;SDS011;9197;50.930;3.140;2022-09-03T12:01:31;14.68;;;13.38;;
18142;SDS011;9197;50.930;3.140;2022-09-03T12:04:00;17.08;;;15.55;;
18142;SDS011;9197;50.930;3.140;2022-09-03T12:06:45;15.38;;;13.98;;
18142;SDS011;9197;50.930;3.140;2022-09-03T12:09:46;12.35;;;11.35;;
18142;SDS011;9197;50.930;3.140;2022-09-03T12:12:39;10.13;;;9.15;;
18142;SDS011;9197;50.930;3.140;2022-09-03T12:15:20;9.05;;;8.23;;
18142;SDS011;9197;50.930;3.140;2022-09-03T12:17:58;9.43;;;8.63;;
18142;SDS011;9197;50.930;3.140;2022-09-03T12:20:47;11.10;;;10.10;;
18142;SDS011;9197;50.930;3.140;2022-09-03T12:23:26;10.77;;;9.88;;
18142;SDS011;9197;50.930;3.140;2022-09-03T12:25:54;11.32;;;10.32;;
18142;SDS011;9197;50.930;3.140;2022-09-03T12:28:23;10.07;;;9.07;;
18142;SDS011;9197;50.930;3.140;2022-09-03T12:31:04;9.77;;;8.98;;
18142;SDS011;9197;50.930;3.140;2022-09-03T12:33:32;7.43;;;6.82;;
18142;SDS011;9197;50.930;3.140;2022-09-03T12:36:00;7.50;;;6.85;;
18142;SDS011;9197;50.930;3.140;2022-09-03T12:38:27;6.95;;;6.35;;
18142;SDS011;9197;50.930;3.140;2022-09-03T12:40:56;7.20;;;6.53;;
18142;SDS011;9197;50.930;3.140;2022-09-03T12:43:26;6.53;;;5.75;;
18142;SDS011;9197;50.930;3.140;2022-09-03T12:45:55;4.35;;;3.90;;
18142;SDS011;9197;50.930;3.140;2022-09-03T12:48:22;6.03;;;5.53;;
18142;SDS011;9197;50.930;3.140;2022-09-03T12:50:59;4.72;;;4.43;;
18142;SDS011;9197;50.930;3.140;2022-09-03T12:53:28;5.22;;;4.72;;
18142;SDS011;9197;50.930;3.140;2022-09-03T12:55:57;5.03;;;4.63;;
18142;SDS011;9197;50.930;3.140;2022-09-03T12:58:29;4.10;;;3.78;;
18142;SDS011;9197;50.930;3.140;2022-09-03T13:01:05;4.30;;;3.90;;
18142;SDS011;9197;50.930;3.140;2022-09-03T13:03:37;7.13;;;6.43;;
18142;SDS011;9197;50.930;3.140;2022-09-03T13:06:09;6.65;;;6.15;;
18142;SDS011;9197;50.930;3.140;2022-09-03T13:08:40;7.25;;;6.28;;
18142;SDS011;9197;50.930;3.140;2022-09-03T13:11:13;7.88;;;7.07;;
18142;SDS011;9197;50.930;3.140;2022-09-03T13:13:49;6.85;;;6.15;;
18142;SDS011;9197;50.930;3.140;2022-09-03T13:19:19;7.07;;;6.47;;
18142;SDS011;9197;50.930;3.140;2022-09-03T13:21:53;8.77;;;7.13;;
18142;SDS011;9197;50.930;3.140;2022-09-03T13:24:39;7.43;;;6.72;;
18142;SDS011;9197;50.930;3.140;2022-09-03T13:27:15;6.13;;;5.50;;
18142;SDS011;9197;50.930;3.140;2022-09-03T13:29:51;6.68;;;6.18;;
18142;SDS011;9197;50.930;3.140;2022-09-03T13:32:37;5.60;;;5.05;;
18142;SDS011;9197;50.930;3.140;2022-09-03T13:35:16;7.20;;;5.85;;
18142;SDS011;9197;50.930;3.140;2022-09-03T13:37:52;5.30;;;4.90;;
18142;SDS011;9197;50.930;3.140;2022-09-03T13:40:24;8.50;;;6.55;;
18142;SDS011;9197;50.930;3.140;2022-09-03T13:43:00;6.70;;;6.07;;
18142;SDS011;9197;50.930;3.140;2022-09-03T13:45:37;6.18;;;5.55;;
18142;SDS011;9197;50.930;3.140;2022-09-03T13:48:12;5.28;;;4.78;;
18142;SDS011;9197;50.930;3.140;2022-09-03T13:51:01;4.90;;;4.50;;
18142;SDS011;9197;50.930;3.140;2022-09-03T13:53:42;5.43;;;4.93;;
18142;SDS011;9197;50.930;3.140;2022-09-03T13:56:18;6.45;;;4.82;;
18142;SDS011;9197;50.930;3.140;2022-09-03T13:58:53;5.43;;;5.03;;
18142;SDS011;9197;50.930;3.140;2022-09-03T14:01:26;7.13;;;6.53;;
18142;SDS011;9197;50.930;3.140;2022-09-03T14:04:13;5.95;;;5.35;;
18142;SDS011;9197;50.930;3.140;2022-09-03T14:06:48;5.82;;;5.32;;
18142;SDS011;9197;50.930;3.140;2022-09-03T14:09:26;6.90;;;6.30;;
18142;SDS011;9197;50.930;3.140;2022-09-03T14:12:00;5.30;;;4.80;;
18142;SDS011;9197;50.930;3.140;2022-09-03T14:14:34;5.55;;;5.15;;
18142;SDS011;9197;50.930;3.140;2022-09-03T14:17:11;6.63;;;6.03;;
18142;SDS011;9197;50.930;3.140;2022-09-03T14:19:47;3.63;;;3.33;;
18142;SDS011;9197;50.930;3.140;2022-09-03T14:22:21;4.00;;;3.38;;
18142;SDS011;9197;50.930;3.140;2022-09-03T14:24:52;4.97;;;4.07;;
18142;SDS011;9197;50.930;3.140;2022-09-03T14:27:23;4.88;;;4.57;;
18142;SDS011;9197;50.930;3.140;2022-09-03T14:29:52;5.00;;;4.53;;
18142;SDS011;9197;50.930;3.140;2022-09-03T14:32:26;4.70;;;4.35;;
18142;SDS011;9197;50.930;3.140;2022-09-03T14:35:04;5.80;;;5.20;;
18142;SDS011;9197;50.930;3.140;2022-09-03T14:37:45;7.40;;;5.45;;
18142;SDS011;9197;50.930;3.140;2022-09-03T14:40:39;5.32;;;4.82;;
18142;SDS011;9197;50.930;3.140;2022-09-03T14:43:15;5.90;;;5.40;;
18142;SDS011;9197;50.930;3.140;2022-09-03T14:46:00;6.68;;;5.55;;
18142;SDS011;9197;50.930;3.140;2022-09-03T14:48:52;6.38;;;5.78;;
18142;SDS011;9197;50.930;3.140;2022-09-03T14:51:33;7.80;;;5.55;;
18142;SDS011;9197;50.930;3.140;2022-09-03T14:54:17;6.80;;;6.20;;
18142;SDS011;9197;50.930;3.140;2022-09-03T14:57:05;8.13;;;7.32;;
18142;SDS011;9197;50.930;3.140;2022-09-03T15:05:42;7.00;;;6.40;;
18142;SDS011;9197;50.930;3.140;2022-09-03T15:08:42;5.88;;;5.28;;
18142;SDS011;9197;50.930;3.140;2022-09-03T15:11:19;6.47;;;5.97;;
18142;SDS011;9197;50.930;3.140;2022-09-03T15:13:50;7.00;;;5.75;;
18142;SDS011;9197;50.930;3.140;2022-09-03T15:16:23;6.50;;;5.82;;
18142;SDS011;9197;50.930;3.140;2022-09-03T15:19:00;5.65;;;5.15;;
18142;SDS011;9197;50.930;3.140;2022-09-03T15:21:40;5.50;;;5.00;;
18142;SDS011;9197;50.930;3.140;2022-09-03T15:24:26;5.20;;;4.70;;